Time;durP1;ratioP1;P1;durP2;ratioP2;P2;SDS_P1;SDS_P2;PMS_P1;PMS_P2;Temp;Humidity;BMP_temperature;BMP_pressure;BME280_temperature;BME280_humidity;BME280_pressure;Samples;Min_cycle;Max_cycle;Signal;HPM_P1;HPM_P2
2023/02/17 00:01:25;;;;;;;11.77;6.83;;;8.20;99.90;8.00;100996.00;;;;4910111;28;87853;-67
2023/02/17 00:03:52;;;;;;;12.93;7.40;;;8.20;99.90;8.10;100992.00;;;;4910717;28;99243;-67
2023/02/17 00:06:24;;;;;;;10.70;6.50;;;8.20;99.90;8.00;100992.00;;;;4909165;28;97138;-66
2023/02/17 00:08:50;;;;;;;10.70;7.43;;;8.10;99.90;8.00;100992.00;;;;4909575;28;89964;-66
2023/02/17 00:11:16;;;;;;;12.03;7.17;;;8.20;99.90;8.00;100994.00;;;;4908867;28;101206;-66
2023/02/17 00:13:42;;;;;;;10.00;6.70;;;8.10;99.90;8.00;100991.00;;;;4910282;28;87952;-67
2023/02/17 00:16:21;;;;;;;12.80;6.60;;;8.10;99.90;8.00;100981.00;;;;4907632;28;89079;-67
2023/02/17 00:19:01;;;;;;;9.77;6.73;;;8.10;99.90;8.00;100985.00;;;;4910780;28;88418;-66
2023/02/17 00:21:30;;;;;;;9.50;6.33;;;8.20;99.90;8.10;100986.00;;;;4906579;28;101523;-67
2023/02/17 00:23:57;;;;;;;8.73;5.87;;;8.20;99.90;8.20;100982.00;;;;4891594;28;87301;-67
2023/02/17 00:26:23;;;;;;;8.90;6.80;;;8.20;99.90;8.20;100973.00;;;;4873622;28;108282;-68
2023/02/17 00:28:49;;;;;;;7.50;6.23;;;8.30;99.90;8.30;100983.00;;;;4909920;28;114035;-66
2023/02/17 00:31:19;;;;;;;12.10;6.80;;;8.30;99.90;8.30;100972.00;;;;4910250;28;89187;-67
2023/02/17 00:33:46;;;;;;;10.20;6.60;;;8.40;99.90;8.40;100978.00;;;;4909283;28;87787;-67
2023/02/17 00:36:16;;;;;;;9.10;6.13;;;8.40;99.90;8.40;100985.00;;;;4911100;28;88258;-68
2023/02/17 00:38:42;;;;;;;13.23;7.47;;;8.50;99.90;8.40;100980.00;;;;4906393;28;88640;-67
2023/02/17 00:41:08;;;;;;;7.27;5.67;;;8.50;99.90;8.50;100978.00;;;;4908577;28;87886;-67
2023/02/17 00:43:34;;;;;;;11.57;6.63;;;8.60;99.90;8.50;100977.00;;;;4906093;28;107710;-68
2023/02/17 00:46:02;;;;;;;11.83;6.87;;;8.60;99.90;8.50;100989.00;;;;4907317;28;116423;-68
2023/02/17 00:48:29;;;;;;;14.50;7.57;;;8.60;99.90;8.60;100983.00;;;;4908035;28;90539;-67
2023/02/17 00:50:55;;;;;;;12.93;6.50;;;8.60;99.90;8.60;100981.00;;;;4907638;28;88558;-67
2023/02/17 00:53:20;;;;;;;11.27;6.40;;;8.70;99.90;8.60;100982.00;;;;4907536;28;88000;-67
2023/02/17 00:55:46;;;;;;;8.57;5.80;;;8.80;99.90;8.70;100977.00;;;;4907124;28;117849;-67
2023/02/17 00:58:12;;;;;;;12.87;7.57;;;8.70;99.90;8.70;100968.00;;;;4908595;28;117170;-68
2023/02/17 01:00:38;;;;;;;7.70;5.93;;;8.80;99.90;8.70;100968.00;;;;4911951;28;89837;-67
2023/02/17 01:03:03;;;;;;;9.43;6.87;;;8.80;99.90;8.70;100965.00;;;;4889470;28;107518;-66
2023/02/17 01:05:29;;;;;;;9.60;6.67;;;8.80;99.90;8.70;100977.00;;;;4907142;28;116516;-67
2023/02/17 01:07:55;;;;;;;7.10;5.43;;;8.70;99.90;8.70;100959.00;;;;4908845;28;88128;-68
2023/02/17 01:10:21;;;;;;;8.57;6.03;;;8.80;99.90;8.70;100967.00;;;;4911687;28;94329;-67
2023/02/17 01:12:47;;;;;;;13.67;7.87;;;8.80;99.90;8.70;100968.00;;;;4907034;28;107416;-66
2023/02/17 01:15:13;;;;;;;12.37;7.10;;;8.80;99.90;8.70;100975.00;;;;4908605;28;109659;-67
2023/02/17 01:17:39;;;;;;;10.27;7.23;;;8.80;99.90;8.70;100962.00;;;;4905352;28;118538;-67
2023/02/17 01:20:05;;;;;;;11.33;6.83;;;8.80;99.90;8.70;100968.00;;;;4911340;28;88611;-69
2023/02/17 01:22:32;;;;;;;10.33;7.13;;;8.80;99.90;8.70;100966.00;;;;4907189;28;100435;-68
2023/02/17 01:24:59;;;;;;;12.30;6.53;;;8.70;99.90;8.70;100967.00;;;;4910597;28;108922;-68
2023/02/17 01:27:24;;;;;;;7.83;6.23;;;8.80;99.90;8.70;100955.00;;;;4910419;28;98401;-68
2023/02/17 01:29:50;;;;;;;9.73;6.30;;;8.80;99.90;8.70;100956.00;;;;4907587;28;110890;-70
2023/02/17 01:32:16;;;;;;;8.43;6.50;;;8.70;99.90;8.60;100953.00;;;;4913151;28;107483;-67
2023/02/17 01:34:41;;;;;;;9.13;6.17;;;8.70;99.90;8.70;100950.00;;;;4912083;28;111839;-66
2023/02/17 01:37:07;;;;;;;11.13;6.53;;;8.70;99.90;8.60;100958.00;;;;4911865;28;117695;-66
2023/02/17 01:39:32;;;;;;;7.90;5.90;;;8.70;99.90;8.60;100939.00;;;;4912978;28;110083;-67
2023/02/17 01:41:58;;;;;;;12.17;6.47;;;8.80;99.90;8.60;100940.00;;;;4910323;28;87858;-67
2023/02/17 01:44:25;;;;;;;10.07;6.20;;;8.80;99.90;8.60;100932.00;;;;4909784;28;119019;-68
2023/02/17 01:46:54;;;;;;;6.50;5.80;;;8.70;99.90;8.60;100924.00;;;;4910225;28;118651;-67
2023/02/17 01:49:31;;;;;;;10.40;5.93;;;8.70;99.90;8.60;100918.00;;;;4912165;28;103435;-67
2023/02/17 01:52:18;;;;;;;9.83;5.80;;;8.70;99.90;8.60;100911.00;;;;4916186;28;87858;-68
2023/02/17 01:54:54;;;;;;;14.57;7.23;;;8.70;99.90;8.60;100906.00;;;;4916430;28;104986;-66
2023/02/17 01:57:25;;;;;;;10.27;5.80;;;8.70;99.90;8.60;100898.00;;;;4907734;28;103545;-67
2023/02/17 01:59:52;;;;;;;10.83;6.93;;;8.70;99.90;8.60;100889.00;;;;4912702;28;88044;-67
2023/02/17 02:02:18;;;;;;;8.57;5.87;;;8.60;99.90;8.60;100891.00;;;;4911833;28;109184;-67
2023/02/17 02:04:48;;;;;;;10.97;6.43;;;8.70;99.90;8.60;100882.00;;;;4911319;28;118357;-68
2023/02/17 02:07:20;;;;;;;10.83;7.77;;;8.70;99.90;8.60;100886.00;;;;4895464;28;98155;-66
2023/02/17 02:09:51;;;;;;;9.40;6.43;;;8.70;99.90;8.60;100879.00;;;;4895583;28;88639;-67
2023/02/17 02:12:24;;;;;;;12.87;7.07;;;8.70;99.90;8.60;100874.00;;;;4910910;28;100081;-66
2023/02/17 02:14:52;;;;;;;12.43;7.33;;;8.70;99.90;8.60;100878.00;;;;4912317;28;109492;-68
2023/02/17 02:17:26;;;;;;;11.37;7.63;;;8.70;99.90;8.60;100870.00;;;;4913459;28;89078;-67
2023/02/17 02:20:15;;;;;;;8.30;5.47;;;8.60;99.90;8.60;100871.00;;;;4914819;28;87835;-67
2023/02/17 02:23:13;;;;;;;11.07;6.67;;;8.70;99.90;8.60;100866.00;;;;4876254;28;87952;-67
2023/02/17 02:26:30;;;;;;;12.30;6.47;;;8.70;99.90;8.60;100847.00;;;;4894157;28;107108;-66
2023/02/17 02:29:06;;;;;;;12.27;6.53;;;8.70;99.90;8.70;100843.00;;;;4897132;28;109194;-67
2023/02/17 02:31:43;;;;;;;12.60;7.57;;;8.70;99.90;8.70;100843.00;;;;4890814;28;96443;-68
2023/02/17 02:34:19;;;;;;;13.67;7.17;;;8.80;99.90;8.70;100843.00;;;;4909017;28;89082;-67
2023/02/17 02:37:08;;;;;;;13.27;6.67;;;8.80;99.90;8.70;100830.00;;;;4892529;28;99128;-66
2023/02/17 02:39:40;;;;;;;10.63;6.27;;;8.80;99.90;8.80;100844.00;;;;4910980;28;89817;-67
2023/02/17 02:42:10;;;;;;;17.07;7.00;;;8.90;99.90;8.80;100829.00;;;;4891797;28;103566;-67
2023/02/17 02:44:36;;;;;;;9.93;5.40;;;8.90;99.90;8.80;100823.00;;;;4893514;28;96251;-67
2023/02/17 02:47:39;;;;;;;10.30;5.67;;;8.90;99.90;8.80;100816.00;;;;4906391;28;117924;-67
2023/02/17 02:50:05;;;;;;;9.70;6.53;;;8.90;99.90;8.80;100826.00;;;;4908959;28;88055;-68
2023/02/17 02:52:51;;;;;;;10.23;6.37;;;8.90;99.90;8.70;100818.00;;;;4907993;28;104342;-67
2023/02/17 02:55:36;;;;;;;9.80;6.57;;;8.80;99.90;8.60;100816.00;;;;4913793;28;103755;-66
2023/02/17 02:58:06;;;;;;;8.73;6.40;;;8.80;99.90;8.60;100818.00;;;;4894003;28;88966;-67
2023/02/17 03:00:57;;;;;;;9.90;5.60;;;8.70;99.90;8.60;100803.00;;;;4913213;28;88984;-66
2023/02/17 03:03:49;;;;;;;9.33;5.47;;;8.50;99.90;8.70;100797.00;;;;4893099;28;102538;-66
2023/02/17 03:07:01;;;;;;;10.80;6.07;;;8.80;99.90;8.70;100789.00;;;;4893573;28;102028;-67
2023/02/17 03:09:27;;;;;;;16.70;5.83;;;8.80;99.90;8.80;100796.00;;;;4909964;28;88504;-68
2023/02/17 03:11:57;;;;;;;8.30;6.13;;;8.80;99.90;8.80;100792.00;;;;4897862;28;116711;-66
2023/02/17 03:14:24;;;;;;;7.93;6.20;;;8.90;99.90;8.80;100787.00;;;;4910761;28;88251;-66
2023/02/17 03:16:51;;;;;;;9.70;5.73;;;8.90;99.90;8.90;100787.00;;;;4908305;28;107634;-67
2023/02/17 03:19:19;;;;;;;12.27;5.90;;;8.90;99.90;8.90;100790.00;;;;4907328;28;88068;-66
2023/02/17 03:22:17;;;;;;;11.10;5.77;;;9.00;99.90;8.90;100796.00;;;;4892968;28;108952;-67
2023/02/17 03:24:43;;;;;;;9.07;6.30;;;9.00;99.90;8.90;100795.00;;;;4894366;28;89134;-66
2023/02/17 03:27:08;;;;;;;12.80;5.27;;;9.00;99.90;9.00;100794.00;;;;4909314;28;108188;-66
2023/02/17 03:29:34;;;;;;;10.30;5.47;;;9.00;99.90;9.00;100793.00;;;;4911094;28;118644;-68
2023/02/17 03:32:00;;;;;;;10.07;5.77;;;9.10;99.90;9.00;100782.00;;;;4910620;28;95917;-69
2023/02/17 03:34:26;;;;;;;7.93;5.53;;;9.10;99.90;9.00;100790.00;;;;4889165;28;102330;-69
2023/02/17 03:36:51;;;;;;;9.37;4.83;;;9.10;99.90;9.00;100788.00;;;;4906235;28;109114;-68
2023/02/17 03:39:17;;;;;;;9.67;5.57;;;9.10;99.90;9.00;100781.00;;;;4909863;28;108140;-69
2023/02/17 03:41:43;;;;;;;11.33;5.13;;;9.20;99.90;9.00;100768.00;;;;4906888;28;96560;-69
2023/02/17 03:44:09;;;;;;;8.73;5.70;;;9.10;99.90;9.00;100762.00;;;;4907317;28;87983;-68
2023/02/17 03:46:34;;;;;;;9.57;5.17;;;9.10;99.90;9.00;100770.00;;;;4907947;28;93587;-69
2023/02/17 03:49:00;;;;;;;10.00;5.60;;;9.10;99.90;9.00;100762.00;;;;4893498;28;89031;-68
2023/02/17 03:51:26;;;;;;;6.53;4.50;;;9.20;99.90;9.00;100767.00;;;;4909177;28;117575;-68
2023/02/17 03:53:52;;;;;;;9.07;5.07;;;9.10;99.90;9.00;100765.00;;;;4910028;28;109557;-68
2023/02/17 03:56:18;;;;;;;6.83;5.40;;;9.10;99.90;9.10;100765.00;;;;4908654;28;107159;-67
2023/02/17 03:58:44;;;;;;;9.00;4.63;;;9.10;99.90;9.10;100770.00;;;;4906244;28;118597;-68
2023/02/17 04:01:12;;;;;;;7.23;5.60;;;9.10;99.90;9.10;100770.00;;;;4905238;28;88199;-67
2023/02/17 04:03:38;;;;;;;7.03;4.43;;;9.20;99.90;9.10;100761.00;;;;4906997;28;96397;-67
2023/02/17 04:06:05;;;;;;;8.30;5.50;;;9.20;99.90;9.10;100767.00;;;;4906957;28;87873;-67
2023/02/17 04:08:32;;;;;;;8.47;4.87;;;9.10;99.90;9.10;100755.00;;;;4907063;28;103411;-68
2023/02/17 04:11:00;;;;;;;8.97;5.47;;;9.30;99.90;9.10;100766.00;;;;4909511;28;114080;-69
2023/02/17 04:13:27;;;;;;;8.83;5.90;;;9.20;99.90;9.10;100765.00;;;;4906935;28;87785;-69
2023/02/17 04:15:52;;;;;;;9.40;5.60;;;9.20;99.90;9.10;100775.00;;;;4910727;28;87864;-67
2023/02/17 04:18:19;;;;;;;5.83;4.60;;;9.20;99.90;9.10;100770.00;;;;4907584;28;89175;-68
2023/02/17 04:20:49;;;;;;;12.40;6.47;;;9.30;99.90;9.10;100756.00;;;;4909273;28;89932;-68
2023/02/17 04:23:16;;;;;;;10.30;5.97;;;9.20;99.90;9.00;100772.00;;;;4889359;28;88021;-67
2023/02/17 04:25:42;;;;;;;7.17;4.53;;;9.10;99.90;8.90;100778.00;;;;4914142;28;87954;-67
2023/02/17 04:28:08;;;;;;;12.77;5.33;;;9.00;99.90;8.80;100779.00;;;;4910779;28;109283;-67
2023/02/17 04:30:34;;;;;;;8.33;5.20;;;8.90;99.90;8.60;100772.00;;;;4909162;28;118557;-67
2023/02/17 04:33:00;;;;;;;7.80;5.67;;;8.80;99.90;8.60;100775.00;;;;4889818;28;107861;-67
2023/02/17 04:35:26;;;;;;;12.53;6.67;;;8.70;99.90;8.50;100773.00;;;;4910839;28;91767;-68
2023/02/17 04:37:52;;;;;;;9.17;6.30;;;8.60;99.90;8.40;100761.00;;;;4911446;28;118062;-67
2023/02/17 04:40:18;;;;;;;9.10;6.17;;;8.60;99.90;8.30;100763.00;;;;4909502;28;92375;-67
2023/02/17 04:42:44;;;;;;;11.67;6.80;;;8.40;99.90;8.20;100767.00;;;;4909594;28;101132;-69
2023/02/17 04:45:10;;;;;;;11.60;6.87;;;8.30;99.90;8.10;100769.00;;;;4911469;28;87884;-68
2023/02/17 04:47:36;;;;;;;12.10;6.70;;;8.40;99.90;8.00;100757.00;;;;4890661;28;88392;-69
2023/02/17 04:50:02;;;;;;;9.57;6.27;;;8.20;99.90;8.00;100758.00;;;;4910191;28;111670;-68
2023/02/17 04:52:28;;;;;;;12.07;7.43;;;8.10;99.90;7.90;100752.00;;;;4906443;28;96678;-68
2023/02/17 04:54:54;;;;;;;14.40;7.47;;;8.10;99.90;7.90;100752.00;;;;4908422;28;109021;-67
2023/02/17 04:57:19;;;;;;;10.17;6.60;;;8.00;99.90;7.80;100748.00;;;;4908319;28;117875;-69
2023/02/17 04:59:45;;;;;;;11.33;7.57;;;7.90;99.90;7.80;100738.00;;;;4913840;28;117204;-68
2023/02/17 05:02:11;;;;;;;10.17;6.50;;;8.00;99.90;7.80;100743.00;;;;4909668;28;109554;-68
2023/02/17 05:04:36;;;;;;;12.33;7.10;;;7.90;99.90;7.80;100739.00;;;;4911971;28;109026;-68
2023/02/17 05:07:02;;;;;;;10.07;6.47;;;7.90;99.90;7.80;100729.00;;;;4896431;28;117334;-68
2023/02/17 05:09:28;;;;;;;9.63;6.73;;;7.90;99.90;7.70;100733.00;;;;4910613;28;118503;-68
2023/02/17 05:11:53;;;;;;;12.27;7.43;;;7.90;99.90;7.70;100731.00;;;;4906605;28;102668;-67
2023/02/17 05:14:19;;;;;;;11.73;7.53;;;7.90;99.90;7.70;100730.00;;;;4891914;28;108853;-69
2023/02/17 05:16:45;;;;;;;9.57;6.17;;;7.90;99.90;7.70;100727.00;;;;4889610;28;116304;-66
2023/02/17 05:19:10;;;;;;;10.73;6.93;;;8.00;99.90;7.70;100729.00;;;;4890881;28;117815;-67
2023/02/17 05:21:36;;;;;;;12.07;8.57;;;7.80;99.90;7.70;100721.00;;;;4896184;28;87910;-66
2023/02/17 05:24:03;;;;;;;11.13;8.27;;;8.10;99.90;7.70;100727.00;;;;4894339;28;87209;-67
2023/02/17 05:26:29;;;;;;;11.13;7.60;;;7.90;99.90;7.70;100726.00;;;;4893435;28;89227;-66
2023/02/17 05:28:54;;;;;;;15.27;7.57;;;7.80;99.90;7.70;100722.00;;;;4896557;28;97601;-64
2023/02/17 05:31:20;;;;;;;12.93;8.50;;;7.80;99.90;7.70;100722.00;;;;4890702;28;88778;-66
2023/02/17 05:33:46;;;;;;;11.13;7.20;;;7.80;99.90;7.70;100725.00;;;;4894060;28;106996;-66
2023/02/17 05:36:11;;;;;;;12.03;7.27;;;7.80;99.90;7.60;100712.00;;;;4888310;28;117850;-66
2023/02/17 05:38:38;;;;;;;10.63;7.33;;;7.80;99.90;7.60;100710.00;;;;4894244;28;105531;-67
2023/02/17 05:41:04;;;;;;;11.83;7.57;;;7.70;99.90;7.60;100703.00;;;;4890495;28;87798;-66
2023/02/17 05:43:30;;;;;;;10.83;7.47;;;7.70;99.90;7.60;100700.00;;;;4895843;28;88034;-66
2023/02/17 05:46:02;;;;;;;12.83;7.83;;;7.80;99.90;7.60;100705.00;;;;4892150;28;118114;-66
2023/02/17 05:48:27;;;;;;;18.77;7.80;;;7.70;99.90;7.60;100706.00;;;;4892162;28;88243;-66
2023/02/17 05:50:53;;;;;;;11.27;7.10;;;7.80;99.90;7.70;100715.00;;;;4889928;28;110517;-65
2023/02/17 05:53:19;;;;;;;13.80;7.40;;;7.80;99.90;7.70;100699.00;;;;4891236;28;108447;-66
2023/02/17 05:55:44;;;;;;;10.47;6.93;;;7.80;99.90;7.70;100701.00;;;;4890209;28;117781;-65
2023/02/17 05:58:10;;;;;;;16.07;7.87;;;7.90;99.90;7.70;100691.00;;;;4889805;28;119176;-66
2023/02/17 06:00:36;;;;;;;16.40;7.83;;;7.80;99.90;7.70;100685.00;;;;4886625;28;107584;-65
2023/02/17 06:03:02;;;;;;;10.70;7.30;;;7.80;99.90;7.70;100698.00;;;;4891994;28;110996;-66
2023/02/17 06:05:27;;;;;;;9.57;6.83;;;7.40;99.90;7.70;100690.00;;;;4889000;28;105514;-65
2023/02/17 06:07:53;;;;;;;13.40;6.90;;;7.80;99.90;7.70;100683.00;;;;4890531;28;116901;-65
2023/02/17 06:10:19;;;;;;;13.33;6.87;;;7.80;99.90;7.70;100687.00;;;;4888597;28;109959;-66
2023/02/17 06:12:44;;;;;;;13.70;7.70;;;7.80;99.90;7.70;100681.00;;;;4903524;28;109190;-66
2023/02/17 06:15:10;;;;;;;10.17;7.07;;;7.80;99.90;7.70;100685.00;;;;4910277;28;116201;-65
2023/02/17 06:17:36;;;;;;;11.20;7.83;;;7.90;99.90;7.80;100685.00;;;;4910765;28;114291;-66
2023/02/17 06:20:02;;;;;;;11.90;7.07;;;7.90;99.90;7.80;100689.00;;;;4911373;28;98316;-65
2023/02/17 06:22:27;;;;;;;12.13;6.97;;;8.40;99.90;7.80;100685.00;;;;4913647;28;87726;-66
2023/02/17 06:24:53;;;;;;;12.57;8.13;;;8.10;99.90;7.80;100681.00;;;;4911467;28;117386;-66
2023/02/17 06:27:19;;;;;;;10.67;6.63;;;7.90;99.90;7.90;100677.00;;;;4911450;28;114830;-65
2023/02/17 06:29:44;;;;;;;8.67;6.67;;;8.00;99.90;7.90;100681.00;;;;4913238;28;110353;-66
2023/02/17 06:32:10;;;;;;;13.67;7.43;;;8.00;99.90;7.90;100671.00;;;;4909747;28;109296;-66
2023/02/17 06:34:36;;;;;;;9.40;6.00;;;8.00;99.90;7.90;100671.00;;;;4909910;28;118327;-66
2023/02/17 06:37:01;;;;;;;8.97;6.63;;;8.00;99.90;8.00;100668.00;;;;4909409;28;116543;-67
2023/02/17 06:39:27;;;;;;;11.60;7.33;;;8.10;99.90;8.00;100660.00;;;;4911332;28;109986;-65
2023/02/17 06:41:53;;;;;;;12.40;7.00;;;8.10;99.90;8.00;100664.00;;;;4911674;28;108553;-66
2023/02/17 06:44:18;;;;;;;12.37;5.73;;;8.20;99.90;8.10;100660.00;;;;4906413;28;118901;-66
2023/02/17 06:46:45;;;;;;;9.67;6.03;;;8.10;99.90;8.10;100656.00;;;;4894688;28;117158;-65
2023/02/17 06:49:12;;;;;;;11.27;6.43;;;8.20;99.90;8.20;100655.00;;;;4910671;28;87870;-66
2023/02/17 06:51:38;;;;;;;9.53;5.33;;;8.30;99.90;8.20;100654.00;;;;4909593;28;87799;-66
2023/02/17 06:54:04;;;;;;;12.67;6.43;;;8.30;99.90;8.30;100661.00;;;;4911764;28;91736;-67
2023/02/17 06:56:29;;;;;;;9.00;5.70;;;8.40;99.90;8.30;100658.00;;;;4895229;28;87854;-67
2023/02/17 06:58:55;;;;;;;15.90;6.23;;;8.40;99.90;8.40;100656.00;;;;4912924;28;110005;-66
2023/02/17 07:01:25;;;;;;;10.13;5.07;;;8.70;99.90;8.40;100664.00;;;;4908412;28;109186;-66
2023/02/17 07:03:55;;;;;;;9.03;5.53;;;8.50;99.90;8.50;100665.00;;;;4909832;28;89173;-66
2023/02/17 07:06:22;;;;;;;8.53;5.43;;;8.60;99.90;8.50;100657.00;;;;4910394;28;108440;-66
2023/02/17 07:08:49;;;;;;;8.70;5.50;;;8.60;99.90;8.60;100669.00;;;;4874610;28;89129;-67
2023/02/17 07:11:15;;;;;;;7.43;5.03;;;8.70;99.90;8.60;100664.00;;;;4910517;28;88104;-66
2023/02/17 07:13:42;;;;;;;8.87;5.27;;;8.70;99.90;8.70;100664.00;;;;4906695;28;100081;-66
2023/02/17 07:16:10;;;;;;;6.60;5.00;;;8.70;99.90;8.80;100662.00;;;;4910881;28;87911;-66
2023/02/17 07:18:36;;;;;;;8.23;5.40;;;8.80;99.90;8.80;100661.00;;;;4879125;28;88023;-66
2023/02/17 07:21:04;;;;;;;7.33;4.67;;;8.90;99.90;8.90;100664.00;;;;4910458;28;108773;-65
2023/02/17 07:23:30;;;;;;;8.60;5.77;;;8.90;99.90;8.90;100653.00;;;;4909687;28;89079;-65
2023/02/17 07:25:56;;;;;;;6.83;4.73;;;9.00;99.90;8.90;100654.00;;;;4908682;28;117268;-65
2023/02/17 07:28:21;;;;;;;8.60;4.80;;;9.00;99.90;9.00;100666.00;;;;4906615;28;108696;-66
2023/02/17 07:30:47;;;;;;;7.20;4.70;;;9.10;99.90;9.00;100652.00;;;;4908941;28;107929;-67
2023/02/17 07:33:12;;;;;;;9.43;4.93;;;9.10;99.90;9.10;100660.00;;;;4908897;28;118107;-66
2023/02/17 07:35:45;;;;;;;8.47;5.63;;;9.10;99.90;9.10;100663.00;;;;4905958;28;117604;-66
2023/02/17 07:38:11;;;;;;;5.17;4.37;;;9.20;99.90;9.10;100666.00;;;;4905894;28;87907;-66
2023/02/17 07:40:37;;;;;;;6.87;4.20;;;9.20;99.90;9.20;100661.00;;;;4903846;28;87814;-67
2023/02/17 07:43:03;;;;;;;7.70;4.10;;;9.20;99.90;9.20;100656.00;;;;4910614;28;88961;-68
2023/02/17 07:45:28;;;;;;;10.73;4.40;;;9.20;99.90;9.20;100646.00;;;;4907154;28;95436;-66
2023/02/17 07:47:54;;;;;;;5.73;4.40;;;9.30;99.90;9.30;100664.00;;;;4909351;28;110869;-66
2023/02/17 07:50:20;;;;;;;6.87;4.67;;;9.30;99.90;9.30;100658.00;;;;4909107;28;108840;-66
2023/02/17 07:52:46;;;;;;;5.73;3.27;;;9.40;99.90;9.30;100655.00;;;;4910233;28;104922;-67
2023/02/17 07:55:11;;;;;;;6.33;4.03;;;9.40;99.90;9.30;100664.00;;;;4907134;28;117269;-66
2023/02/17 07:57:37;;;;;;;5.97;3.77;;;9.40;99.90;9.40;100652.00;;;;4907936;28;110491;-66
2023/02/17 08:00:05;;;;;;;8.07;3.67;;;9.50;99.90;9.40;100665.00;;;;4912984;28;88055;-67
2023/02/17 08:02:30;;;;;;;4.97;3.47;;;9.50;99.90;9.40;100663.00;;;;4905524;28;104276;-67
2023/02/17 08:04:56;;;;;;;4.20;3.23;;;9.50;99.90;9.50;100665.00;;;;4910062;28;118091;-66
2023/02/17 08:07:22;;;;;;;4.60;2.87;;;9.50;99.90;9.50;100666.00;;;;4908540;28;109636;-67
2023/02/17 08:15:16;;;;;;;6.13;4.03;;;9.60;99.90;9.60;100673.00;;;;4906451;28;87375;-65
2023/02/17 08:17:43;;;;;;;9.30;4.57;;;9.60;99.90;9.60;100675.00;;;;4906936;28;110777;-66
2023/02/17 08:20:09;;;;;;;5.93;3.90;;;9.70;99.90;9.60;100668.00;;;;4907793;28;87889;-65
2023/02/17 08:22:35;;;;;;;7.20;3.40;;;9.70;99.90;9.60;100671.00;;;;4907254;28;94390;-64
2023/02/17 08:25:00;;;;;;;4.27;3.03;;;9.70;99.90;9.70;100658.00;;;;4906083;28;89643;-64
2023/02/17 08:27:26;;;;;;;4.97;3.30;;;9.70;99.90;9.70;100667.00;;;;4907553;28;110758;-64
2023/02/17 08:29:52;;;;;;;7.23;4.50;;;9.80;99.90;9.70;100655.00;;;;4905867;28;107907;-65
2023/02/17 08:32:18;;;;;;;6.10;3.77;;;9.80;99.90;9.70;100660.00;;;;4906650;28;117875;-64
2023/02/17 08:34:44;;;;;;;6.17;3.40;;;9.80;99.90;9.80;100657.00;;;;4908451;28;87856;-66
2023/02/17 08:37:10;;;;;;;5.13;3.57;;;9.80;99.90;9.80;100657.00;;;;4906081;28;87880;-65
2023/02/17 08:39:37;;;;;;;7.17;3.47;;;9.90;99.90;9.80;100648.00;;;;4909448;28;93048;-65
2023/02/17 08:42:03;;;;;;;5.20;3.80;;;9.90;99.90;9.90;100642.00;;;;4906792;28;88446;-64
2023/02/17 08:44:29;;;;;;;5.97;3.77;;;9.90;99.90;9.90;100643.00;;;;4906354;28;93611;-65
2023/02/17 08:46:55;;;;;;;6.57;4.10;;;10.00;99.90;10.00;100635.00;;;;4904188;28;101082;-65
2023/02/17 08:49:24;;;;;;;5.73;3.90;;;10.00;99.90;10.00;100638.00;;;;4908412;28;87859;-65
2023/02/17 08:51:51;;;;;;;9.57;3.70;;;10.10;99.90;10.10;100629.00;;;;4907765;28;103089;-65
2023/02/17 08:54:16;;;;;;;4.37;3.47;;;10.10;99.90;10.10;100628.00;;;;4907763;28;88963;-66
2023/02/17 08:56:43;;;;;;;3.67;3.33;;;10.10;99.90;10.20;100627.00;;;;4905393;28;108768;-65
2023/02/17 08:59:11;;;;;;;5.63;4.23;;;10.20;99.90;10.20;100624.00;;;;4905259;28;88022;-67
2023/02/17 09:01:38;;;;;;;5.40;3.67;;;10.30;99.90;10.30;100623.00;;;;4905970;28;110618;-66
2023/02/17 09:04:07;;;;;;;5.37;3.77;;;10.30;99.90;10.30;100620.00;;;;4908482;28;88706;-67
2023/02/17 09:06:39;;;;;;;7.10;3.87;;;10.40;99.90;10.40;100622.00;;;;4890018;28;88137;-66
2023/02/17 09:09:08;;;;;;;6.57;4.27;;;10.40;99.90;10.50;100614.00;;;;4904016;28;88238;-66
2023/02/17 09:11:34;;;;;;;8.60;4.00;;;10.50;99.90;10.50;100617.00;;;;4905797;28;104926;-66
2023/02/17 09:14:00;;;;;;;6.23;3.73;;;10.50;99.90;10.60;100615.00;;;;4905696;28;117899;-66
2023/02/17 09:16:26;;;;;;;5.87;3.33;;;10.60;99.90;10.60;100619.00;;;;4886964;28;88914;-66
2023/02/17 09:18:52;;;;;;;6.23;3.67;;;10.60;99.90;10.70;100636.00;;;;4909537;28;93599;-67
2023/02/17 09:21:19;;;;;;;5.30;4.10;;;10.70;99.90;10.70;100624.00;;;;4908666;28;91787;-66
2023/02/17 09:23:45;;;;;;;4.00;3.53;;;10.70;99.90;10.70;100627.00;;;;4904941;28;103645;-66
2023/02/17 09:26:17;;;;;;;7.47;4.07;;;10.80;99.90;10.80;100623.00;;;;4906661;28;87803;-65
2023/02/17 09:28:45;;;;;;;4.27;3.30;;;10.80;99.90;10.80;100627.00;;;;4901609;28;87106;-65
2023/02/17 09:31:14;;;;;;;3.50;2.80;;;10.80;99.90;10.80;100626.00;;;;4908089;28;88991;-65
2023/02/17 09:33:41;;;;;;;5.80;3.93;;;10.90;99.90;10.80;100620.00;;;;4889542;28;87986;-65
2023/02/17 09:36:11;;;;;;;6.90;3.73;;;10.80;99.90;10.80;100616.00;;;;4912551;28;89841;-66
2023/02/17 09:38:40;;;;;;;5.03;2.90;;;10.80;99.90;10.80;100610.00;;;;4912037;28;101039;-68
2023/02/17 09:41:41;;;;;;;5.50;3.23;;;10.90;99.90;10.80;100603.00;;;;4893179;28;89671;-64
2023/02/17 09:44:24;;;;;;;5.47;3.77;;;10.90;99.90;10.90;100599.00;;;;4912179;28;87841;-65
2023/02/17 09:47:05;;;;;;;6.03;3.53;;;11.00;99.90;10.90;100595.00;;;;4909240;28;88214;-65
2023/02/17 09:49:41;;;;;;;3.57;2.37;;;11.00;99.90;11.00;100602.00;;;;4906897;28;102622;-65
2023/02/17 09:52:18;;;;;;;4.53;3.20;;;11.00;99.90;11.00;100590.00;;;;4891635;28;88239;-65
2023/02/17 09:54:57;;;;;;;6.80;3.53;;;11.10;99.90;11.10;100591.00;;;;4913293;28;88050;-66
2023/02/17 09:57:28;;;;;;;3.13;2.77;;;11.10;99.90;11.10;100568.00;;;;4896380;28;87790;-65
2023/02/17 10:00:11;;;;;;;5.10;3.10;;;11.10;99.90;11.10;100589.00;;;;4891952;28;87573;-65
2023/02/17 10:03:00;;;;;;;3.70;2.93;;;11.20;99.90;11.10;100580.00;;;;4910448;28;88995;-66
2023/02/17 10:05:37;;;;;;;2.50;2.30;;;11.10;99.90;11.10;100580.00;;;;4874561;28;91059;-65
2023/02/17 10:08:21;;;;;;;3.43;2.70;;;11.20;99.90;10.90;100576.00;;;;4875800;28;105761;-66
2023/02/17 10:10:53;;;;;;;3.23;2.83;;;11.10;99.90;10.90;100581.00;;;;4908721;28;102180;-65
2023/02/17 10:13:21;;;;;;;4.00;2.70;;;10.90;99.90;10.80;100573.00;;;;4890879;28;91603;-66
2023/02/17 10:15:52;;;;;;;2.97;2.67;;;10.90;99.90;10.80;100589.00;;;;4892861;28;118583;-65
2023/02/17 10:18:25;;;;;;;3.67;2.83;;;10.90;99.90;10.70;100557.00;;;;4912093;28;108715;-66
2023/02/17 10:21:06;;;;;;;4.13;2.93;;;10.80;99.90;10.70;100559.00;;;;4894834;28;87331;-67
2023/02/17 10:23:32;;;;;;;4.10;2.97;;;10.80;99.90;10.70;100549.00;;;;4907839;28;87802;-66
2023/02/17 10:26:16;;;;;;;4.50;2.90;;;10.70;99.90;10.80;100538.00;;;;4912301;28;89215;-67
2023/02/17 10:29:00;;;;;;;3.97;2.43;;;10.80;99.90;10.80;100534.00;;;;4909054;28;89306;-66
2023/02/17 10:31:46;;;;;;;4.80;2.27;;;10.90;99.90;10.80;100533.00;;;;4907313;28;87855;-66
2023/02/17 10:34:19;;;;;;;5.80;3.67;;;10.90;99.90;10.80;100519.00;;;;4908383;28;102938;-66
2023/02/17 10:37:01;;;;;;;2.67;2.47;;;10.90;99.90;10.80;100508.00;;;;4910062;28;94871;-65
2023/02/17 10:39:48;;;;;;;3.67;2.20;;;10.90;99.90;10.70;100510.00;;;;4912807;28;93808;-65
2023/02/17 10:42:24;;;;;;;3.17;2.33;;;10.80;99.90;10.70;100508.00;;;;4895424;28;88777;-67
2023/02/17 10:44:53;;;;;;;2.70;2.00;;;10.80;99.90;10.70;100501.00;;;;4911492;28;89005;-66
2023/02/17 10:47:20;;;;;;;4.83;3.13;;;10.80;99.90;10.70;100504.00;;;;4910484;28;97755;-66
2023/02/17 10:49:50;;;;;;;2.93;2.23;;;10.70;99.90;10.70;100492.00;;;;4909761;28;109591;-66
2023/02/17 10:52:20;;;;;;;3.07;2.27;;;10.70;99.90;10.70;100489.00;;;;4911596;28;101016;-66
2023/02/17 10:55:04;;;;;;;3.20;2.27;;;10.70;99.90;10.70;100494.00;;;;4908516;28;109718;-66
2023/02/17 10:57:37;;;;;;;3.00;2.33;;;10.80;99.90;10.80;100478.00;;;;4890013;28;107457;-67
2023/02/17 11:00:08;;;;;;;3.97;2.30;;;10.80;99.90;10.80;100461.00;;;;4909144;28;87783;-67
2023/02/17 11:02:39;;;;;;;4.60;2.50;;;10.80;99.90;10.80;100485.00;;;;4909651;28;88027;-67
2023/02/17 11:05:05;;;;;;;2.63;2.10;;;10.80;99.90;10.80;100483.00;;;;4886114;28;106890;-67
2023/02/17 11:07:40;;;;;;;5.13;2.80;;;10.80;99.90;10.70;100469.00;;;;4913967;28;87917;-68